sensor_id;sensor_type;location;lat;lon;timestamp;temperature;humidity
38380;DHT22;38377;47.418;18.882;2022-12-15T00:01:07;-0.40;99.90
38380;DHT22;38377;47.418;18.882;2022-12-15T00:03:51;-0.40;99.90
38380;DHT22;38377;47.418;18.882;2022-12-15T00:06:35;-0.40;99.90
38380;DHT22;38377;47.418;18.882;2022-12-15T00:09:19;-0.40;99.90
38380;DHT22;38377;47.418;18.882;2022-12-15T00:12:03;-0.50;99.90
38380;DHT22;38377;47.418;18.882;2022-12-15T00:14:48;-0.40;99.90
38380;DHT22;38377;47.418;18.882;2022-12-15T00:17:32;-0.40;99.90
38380;DHT22;38377;47.418;18.882;2022-12-15T00:20:16;-0.40;99.90
38380;DHT22;38377;47.418;18.882;2022-12-15T00:23:11;-0.40;99.90
38380;DHT22;38377;47.418;18.882;2022-12-15T00:25:56;-0.30;99.90
38380;DHT22;38377;47.418;18.882;2022-12-15T00:28:41;-0.30;99.90
38380;DHT22;38377;47.418;18.882;2022-12-15T00:31:25;-0.30;99.90
38380;DHT22;38377;47.418;18.882;2022-12-15T00:34:10;-0.30;99.90
38380;DHT22;38377;47.418;18.882;2022-12-15T00:36:54;-0.30;99.90
38380;DHT22;38377;47.418;18.882;2022-12-15T00:39:39;-0.30;99.90
38380;DHT22;38377;47.418;18.882;2022-12-15T00:42:09;-0.30;99.90
38380;DHT22;38377;47.418;18.882;2022-12-15T00:44:35;-0.30;99.90
38380;DHT22;38377;47.418;18.882;2022-12-15T00:47:02;-0.30;99.90
38380;DHT22;38377;47.418;18.882;2022-12-15T00:49:28;-0.30;99.90
38380;DHT22;38377;47.418;18.882;2022-12-15T00:52:14;-0.30;99.90
38380;DHT22;38377;47.418;18.882;2022-12-15T00:54:59;-0.30;99.90
38380;DHT22;38377;47.418;18.882;2022-12-15T00:57:43;-0.30;99.90
38380;DHT22;38377;47.418;18.882;2022-12-15T01:00:28;-0.30;99.90
38380;DHT22;38377;47.418;18.882;2022-12-15T01:03:15;-0.30;99.90
38380;DHT22;38377;47.418;18.882;2022-12-15T01:06:04;-0.30;99.90
38380;DHT22;38377;47.418;18.882;2022-12-15T01:08:48;-0.30;99.90
38380;DHT22;38377;47.418;18.882;2022-12-15T01:11:32;-0.20;99.90
38380;DHT22;38377;47.418;18.882;2022-12-15T01:14:16;-0.20;99.90
38380;DHT22;38377;47.418;18.882;2022-12-15T01:17:00;-0.20;99.90
38380;DHT22;38377;47.418;18.882;2022-12-15T01:19:44;-0.20;99.90
38380;DHT22;38377;47.418;18.882;2022-12-15T01:22:28;-0.20;99.90
38380;DHT22;38377;47.418;18.882;2022-12-15T01:24:54;-0.20;99.90
38380;DHT22;38377;47.418;18.882;2022-12-15T01:27:20;-0.20;99.90
38380;DHT22;38377;47.418;18.882;2022-12-15T01:29:45;-0.20;99.90
38380;DHT22;38377;47.418;18.882;2022-12-15T01:32:11;-0.20;99.90
38380;DHT22;38377;47.418;18.882;2022-12-15T01:34:37;-0.20;99.90
38380;DHT22;38377;47.418;18.882;2022-12-15T01:37:03;-0.20;99.90
38380;DHT22;38377;47.418;18.882;2022-12-15T01:39:28;-0.20;99.90
38380;DHT22;38377;47.418;18.882;2022-12-15T01:42:14;-0.10;99.90
38380;DHT22;38377;47.418;18.882;2022-12-15T01:44:40;-0.10;99.90
38380;DHT22;38377;47.418;18.882;2022-12-15T01:47:08;-0.20;99.90
38380;DHT22;38377;47.418;18.882;2022-12-15T01:49:37;-0.10;99.90
38380;DHT22;38377;47.418;18.882;2022-12-15T01:52:06;-0.20;99.90
38380;DHT22;38377;47.418;18.882;2022-12-15T01:54:46;-0.20;99.90
38380;DHT22;38377;47.418;18.882;2022-12-15T01:57:18;-0.10;99.90
38380;DHT22;38377;47.418;18.882;2022-12-15T01:59:48;-0.10;99.90
38380;DHT22;38377;47.418;18.882;2022-12-15T02:02:17;-0.10;99.90
38380;DHT22;38377;47.418;18.882;2022-12-15T02:04:44;-0.10;99.90
38380;DHT22;38377;47.418;18.882;2022-12-15T02:07:16;-0.10;99.90
38380;DHT22;38377;47.418;18.882;2022-12-15T02:09:44;-0.10;99.90
38380;DHT22;38377;47.418;18.882;2022-12-15T02:12:19;-0.10;99.90
38380;DHT22;38377;47.418;18.882;2022-12-15T02:32:11;0.00;99.90
38380;DHT22;38377;47.418;18.882;2022-12-15T02:37:30;-0.10;99.90
38380;DHT22;38377;47.418;18.882;2022-12-15T02:39:57;-0.10;99.90
38380;DHT22;38377;47.418;18.882;2022-12-15T02:42:23;-0.10;99.90
38380;DHT22;38377;47.418;18.882;2022-12-15T02:58:25;0.00;99.90
38380;DHT22;38377;47.418;18.882;2022-12-15T03:01:02;-0.10;99.90
38380;DHT22;38377;47.418;18.882;2022-12-15T03:03:31;-0.10;99.90
38380;DHT22;38377;47.418;18.882;2022-12-15T03:05:59;-0.10;99.90
38380;DHT22;38377;47.418;18.882;2022-12-15T03:08:26;0.00;99.90
38380;DHT22;38377;47.418;18.882;2022-12-15T03:10:54;0.00;99.90
38380;DHT22;38377;47.418;18.882;2022-12-15T03:13:20;0.00;99.90
38380;DHT22;38377;47.418;18.882;2022-12-15T03:15:45;-0.10;99.90
38380;DHT22;38377;47.418;18.882;2022-12-15T03:18:11;-0.10;99.90
38380;DHT22;38377;47.418;18.882;2022-12-15T03:20:37;-0.10;99.90
38380;DHT22;38377;47.418;18.882;2022-12-15T03:23:02;-0.20;99.90
38380;DHT22;38377;47.418;18.882;2022-12-15T03:25:28;-0.30;99.90
38380;DHT22;38377;47.418;18.882;2022-12-15T03:27:54;-0.20;99.90
38380;DHT22;38377;47.418;18.882;2022-12-15T03:30:20;-0.30;99.90
38380;DHT22;38377;47.418;18.882;2022-12-15T03:32:45;-0.30;99.90
38380;DHT22;38377;47.418;18.882;2022-12-15T03:35:11;-0.40;99.90
38380;DHT22;38377;47.418;18.882;2022-12-15T03:37:38;-0.40;99.90
38380;DHT22;38377;47.418;18.882;2022-12-15T03:40:04;-0.50;99.90
38380;DHT22;38377;47.418;18.882;2022-12-15T03:42:30;-0.50;99.90
38380;DHT22;38377;47.418;18.882;2022-12-15T03:45:25;-0.60;99.90
38380;DHT22;38377;47.418;18.882;2022-12-15T03:47:52;-0.70;99.90
38380;DHT22;38377;47.418;18.882;2022-12-15T03:50:21;-0.70;99.90
38380;DHT22;38377;47.418;18.882;2022-12-15T03:52:57;-0.70;99.90
38380;DHT22;38377;47.418;18.882;2022-12-15T03:55:24;-0.70;99.90
38380;DHT22;38377;47.418;18.882;2022-12-15T03:57:50;-0.70;99.90
38380;DHT22;38377;47.418;18.882;2022-12-15T04:00:18;-0.70;99.90
38380;DHT22;38377;47.418;18.882;2022-12-15T04:02:44;-0.70;99.90
38380;DHT22;38377;47.418;18.882;2022-12-15T04:07:44;-0.70;99.90
38380;DHT22;38377;47.418;18.882;2022-12-15T04:10:11;-0.60;99.90
38380;DHT22;38377;47.418;18.882;2022-12-15T04:12:37;-0.60;99.90
38380;DHT22;38377;47.418;18.882;2022-12-15T04:15:05;-0.60;99.90
38380;DHT22;38377;47.418;18.882;2022-12-15T04:17:31;-0.60;99.90
38380;DHT22;38377;47.418;18.882;2022-12-15T04:19:57;-0.50;99.90
38380;DHT22;38377;47.418;18.882;2022-12-15T04:22:39;-0.50;99.90
38380;DHT22;38377;47.418;18.882;2022-12-15T04:25:07;-0.50;99.90
38380;DHT22;38377;47.418;18.882;2022-12-15T04:27:51;-0.50;99.90
38380;DHT22;38377;47.418;18.882;2022-12-15T04:30:35;-0.50;99.90
38380;DHT22;38377;47.418;18.882;2022-12-15T04:33:20;-0.60;99.90
38380;DHT22;38377;47.418;18.882;2022-12-15T04:36:07;-0.60;99.90
38380;DHT22;38377;47.418;18.882;2022-12-15T04:38:52;-0.60;99.90
38380;DHT22;38377;47.418;18.882;2022-12-15T04:41:37;-0.70;99.90
38380;DHT22;38377;47.418;18.882;2022-12-15T04:44:21;-0.70;99.90
38380;DHT22;38377;47.418;18.882;2022-12-15T04:47:06;-0.70;99.90
38380;DHT22;38377;47.418;18.882;2022-12-15T04:49:50;-0.70;99.90
38380;DHT22;38377;47.418;18.882;2022-12-15T04:52:34;-0.80;99.90
38380;DHT22;38377;47.418;18.882;2022-12-15T04:55:18;-0.80;99.90
38380;DHT22;38377;47.418;18.882;2022-12-15T04:58:07;-0.80;99.90
38380;DHT22;38377;47.418;18.882;2022-12-15T05:00:51;-0.90;99.90
38380;DHT22;38377;47.418;18.882;2022-12-15T05:03:35;-0.90;99.90
38380;DHT22;38377;47.418;18.882;2022-12-15T05:06:19;-0.80;99.90
38380;DHT22;38377;47.418;18.882;2022-12-15T05:09:04;-0.80;99.90
38380;DHT22;38377;47.418;18.882;2022-12-15T05:11:48;-0.70;99.90
38380;DHT22;38377;47.418;18.882;2022-12-15T05:14:32;-0.70;99.90
38380;DHT22;38377;47.418;18.882;2022-12-15T05:17:17;-0.70;99.90
38380;DHT22;38377;47.418;18.882;2022-12-15T05:20:01;-0.70;99.90
38380;DHT22;38377;47.418;18.882;2022-12-15T05:22:52;-0.70;99.90
38380;DHT22;38377;47.418;18.882;2022-12-15T05:25:36;-0.70;99.90
38380;DHT22;38377;47.418;18.882;2022-12-15T05:28:20;-0.60;99.90
38380;DHT22;38377;47.418;18.882;2022-12-15T05:31:05;-0.60;99.90
38380;DHT22;38377;47.418;18.882;2022-12-15T05:33:51;-0.70;99.90
38380;DHT22;38377;47.418;18.882;2022-12-15T05:36:17;-0.60;99.90
38380;DHT22;38377;47.418;18.882;2022-12-15T05:38:42;-0.70;99.90
38380;DHT22;38377;47.418;18.882;2022-12-15T05:41:08;-0.70;99.90
38380;DHT22;38377;47.418;18.882;2022-12-15T05:43:34;-0.70;99.90
38380;DHT22;38377;47.418;18.882;2022-12-15T05:46:03;-0.70;99.90
38380;DHT22;38377;47.418;18.882;2022-12-15T05:48:29;-0.70;99.90
38380;DHT22;38377;47.418;18.882;2022-12-15T05:50:54;-0.80;99.90
38380;DHT22;38377;47.418;18.882;2022-12-15T05:53:20;-0.70;99.90
38380;DHT22;38377;47.418;18.882;2022-12-15T05:55:46;-0.70;99.90
38380;DHT22;38377;47.418;18.882;2022-12-15T05:58:11;-0.70;99.90
38380;DHT22;38377;47.418;18.882;2022-12-15T06:00:37;-0.70;99.90
38380;DHT22;38377;47.418;18.882;2022-12-15T06:03:03;-0.70;99.90
38380;DHT22;38377;47.418;18.882;2022-12-15T06:05:28;-0.70;99.90
38380;DHT22;38377;47.418;18.882;2022-12-15T06:07:54;-0.60;99.90
38380;DHT22;38377;47.418;18.882;2022-12-15T06:10:20;-0.60;99.90
38380;DHT22;38377;47.418;18.882;2022-12-15T06:12:46;-0.60;99.90
38380;DHT22;38377;47.418;18.882;2022-12-15T06:15:12;-0.60;99.90
38380;DHT22;38377;47.418;18.882;2022-12-15T06:17:38;-0.60;99.90
38380;DHT22;38377;47.418;18.882;2022-12-15T06:20:04;-0.60;99.90
38380;DHT22;38377;47.418;18.882;2022-12-15T06:22:29;-0.50;99.90
38380;DHT22;38377;47.418;18.882;2022-12-15T06:24:55;-0.50;99.90
38380;DHT22;38377;47.418;18.882;2022-12-15T06:27:21;-0.40;99.90
38380;DHT22;38377;47.418;18.882;2022-12-15T06:29:47;-0.40;99.90
38380;DHT22;38377;47.418;18.882;2022-12-15T06:32:12;-0.40;99.90
38380;DHT22;38377;47.418;18.882;2022-12-15T06:34:38;-0.40;99.90
38380;DHT22;38377;47.418;18.882;2022-12-15T06:37:04;-0.30;99.90
38380;DHT22;38377;47.418;18.882;2022-12-15T06:39:29;-0.20;99.90
38380;DHT22;38377;47.418;18.882;2022-12-15T06:41:55;-0.20;99.90
38380;DHT22;38377;47.418;18.882;2022-12-15T06:44:21;-0.20;99.90
38380;DHT22;38377;47.418;18.882;2022-12-15T06:46:46;-0.20;99.90
38380;DHT22;38377;47.418;18.882;2022-12-15T06:49:12;-0.10;99.90
38380;DHT22;38377;47.418;18.882;2022-12-15T06:51:38;-0.10;99.90
38380;DHT22;38377;47.418;18.882;2022-12-15T06:54:04;-0.10;99.90
38380;DHT22;38377;47.418;18.882;2022-12-15T06:56:31;-0.10;99.90
38380;DHT22;38377;47.418;18.882;2022-12-15T06:58:57;-0.10;99.90
38380;DHT22;38377;47.418;18.882;2022-12-15T07:01:24;0.00;99.90
38380;DHT22;38377;47.418;18.882;2022-12-15T07:03:51;0.00;99.90
38380;DHT22;38377;47.418;18.882;2022-12-15T07:06:17;0.10;99.90
38380;DHT22;38377;47.418;18.882;2022-12-15T07:08:46;0.20;99.90
38380;DHT22;38377;47.418;18.882;2022-12-15T07:11:12;0.20;99.90
38380;DHT22;38377;47.418;18.882;2022-12-15T07:13:38;0.30;99.90
38380;DHT22;38377;47.418;18.882;2022-12-15T07:16:06;0.30;99.90
38380;DHT22;38377;47.418;18.882;2022-12-15T07:18:32;0.30;99.90
38380;DHT22;38377;47.418;18.882;2022-12-15T07:21:02;0.30;99.90
38380;DHT22;38377;47.418;18.882;2022-12-15T07:23:29;0.30;99.90
38380;DHT22;38377;47.418;18.882;2022-12-15T07:25:54;0.40;99.90
38380;DHT22;38377;47.418;18.882;2022-12-15T07:28:20;0.40;99.90
38380;DHT22;38377;47.418;18.882;2022-12-15T07:30:46;0.50;99.90
38380;DHT22;38377;47.418;18.882;2022-12-15T07:33:13;0.50;99.90
38380;DHT22;38377;47.418;18.882;2022-12-15T07:35:40;0.50;99.90
38380;DHT22;38377;47.418;18.882;2022-12-15T07:38:06;0.50;99.90
38380;DHT22;38377;47.418;18.882;2022-12-15T07:40:33;0.50;99.90
38380;DHT22;38377;47.418;18.882;2022-12-15T07:42:59;0.40;99.90
38380;DHT22;38377;47.418;18.882;2022-12-15T07:45:25;0.40;99.90
38380;DHT22;38377;47.418;18.882;2022-12-15T07:47:50;0.50;99.90
38380;DHT22;38377;47.418;18.882;2022-12-15T07:50:19;0.50;99.90
38380;DHT22;38377;47.418;18.882;2022-12-15T07:52:45;0.50;99.90
38380;DHT22;38377;47.418;18.882;2022-12-15T07:55:11;0.50;99.90
38380;DHT22;38377;47.418;18.882;2022-12-15T07:57:37;0.60;99.90
38380;DHT22;38377;47.418;18.882;2022-12-15T08:00:03;0.60;99.90
38380;DHT22;38377;47.418;18.882;2022-12-15T08:02:30;0.60;99.90
38380;DHT22;38377;47.418;18.882;2022-12-15T08:04:55;0.70;99.90
38380;DHT22;38377;47.418;18.882;2022-12-15T08:07:21;0.70;99.90
38380;DHT22;38377;47.418;18.882;2022-12-15T08:09:47;0.80;99.90
38380;DHT22;38377;47.418;18.882;2022-12-15T08:12:13;0.90;99.90
38380;DHT22;38377;47.418;18.882;2022-12-15T08:14:39;0.80;99.90
38380;DHT22;38377;47.418;18.882;2022-12-15T08:17:04;0.80;99.90
38380;DHT22;38377;47.418;18.882;2022-12-15T08:19:30;0.80;99.90
38380;DHT22;38377;47.418;18.882;2022-12-15T08:21:56;0.80;99.90
38380;DHT22;38377;47.418;18.882;2022-12-15T08:24:22;0.80;99.90
38380;DHT22;38377;47.418;18.882;2022-12-15T08:26:48;0.80;99.90
38380;DHT22;38377;47.418;18.882;2022-12-15T08:29:14;0.80;99.90
38380;DHT22;38377;47.418;18.882;2022-12-15T08:31:40;0.80;99.90
38380;DHT22;38377;47.418;18.882;2022-12-15T08:34:07;0.80;99.90
38380;DHT22;38377;47.418;18.882;2022-12-15T08:36:33;0.90;99.90
38380;DHT22;38377;47.418;18.882;2022-12-15T08:38:59;0.90;99.90
38380;DHT22;38377;47.418;18.882;2022-12-15T08:41:28;1.00;99.90
38380;DHT22;38377;47.418;18.882;2022-12-15T08:43:55;1.00;99.90
38380;DHT22;38377;47.418;18.882;2022-12-15T08:46:23;1.00;99.90
38380;DHT22;38377;47.418;18.882;2022-12-15T08:48:50;1.00;99.90
38380;DHT22;38377;47.418;18.882;2022-12-15T08:51:18;0.90;99.90
38380;DHT22;38377;47.418;18.882;2022-12-15T08:53:44;1.00;99.90
38380;DHT22;38377;47.418;18.882;2022-12-15T08:56:12;1.10;99.90
38380;DHT22;38377;47.418;18.882;2022-12-15T08:58:39;1.10;99.90
38380;DHT22;38377;47.418;18.882;2022-12-15T09:01:07;1.30;99.90
38380;DHT22;38377;47.418;18.882;2022-12-15T09:03:34;1.30;99.90
38380;DHT22;38377;47.418;18.882;2022-12-15T09:06:07;1.40;99.90
38380;DHT22;38377;47.418;18.882;2022-12-15T09:08:34;1.50;99.90
38380;DHT22;38377;47.418;18.882;2022-12-15T09:11:01;1.50;99.90
38380;DHT22;38377;47.418;18.882;2022-12-15T09:13:27;1.50;99.90
38380;DHT22;38377;47.418;18.882;2022-12-15T09:16:05;1.50;99.90
38380;DHT22;38377;47.418;18.882;2022-12-15T09:18:32;1.60;99.90
38380;DHT22;38377;47.418;18.882;2022-12-15T09:21:03;1.60;99.90
38380;DHT22;38377;47.418;18.882;2022-12-15T09:23:29;1.60;99.90
38380;DHT22;38377;47.418;18.882;2022-12-15T09:26:02;1.60;99.90
38380;DHT22;38377;47.418;18.882;2022-12-15T09:28:28;1.60;99.90
38380;DHT22;38377;47.418;18.882;2022-12-15T09:31:00;1.60;99.90
38380;DHT22;38377;47.418;18.882;2022-12-15T09:33:26;1.60;99.90
38380;DHT22;38377;47.418;18.882;2022-12-15T09:35:52;1.70;99.90
38380;DHT22;38377;47.418;18.882;2022-12-15T09:38:18;1.70;99.90
38380;DHT22;38377;47.418;18.882;2022-12-15T09:40:44;1.80;99.90
38380;DHT22;38377;47.418;18.882;2022-12-15T09:43:16;1.80;99.90
38380;DHT22;38377;47.418;18.882;2022-12-15T09:45:49;1.70;99.90
38380;DHT22;38377;47.418;18.882;2022-12-15T09:48:19;1.80;99.90
38380;DHT22;38377;47.418;18.882;2022-12-15T09:50:46;1.80;99.90
38380;DHT22;38377;47.418;18.882;2022-12-15T09:53:15;1.80;99.90
38380;DHT22;38377;47.418;18.882;2022-12-15T09:55:42;1.80;99.90
38380;DHT22;38377;47.418;18.882;2022-12-15T10:04:06;1.80;99.90
38380;DHT22;38377;47.418;18.882;2022-12-15T10:06:48;1.80;99.90
38380;DHT22;38377;47.418;18.882;2022-12-15T10:09:19;1.80;99.90
38380;DHT22;38377;47.418;18.882;2022-12-15T10:19:54;1.80;99.90
38380;DHT22;38377;47.418;18.882;2022-12-15T10:22:26;1.70;99.90
38380;DHT22;38377;47.418;18.882;2022-12-15T10:24:54;1.70;99.90
38380;DHT22;38377;47.418;18.882;2022-12-15T10:33:17;1.90;99.90
38380;DHT22;38377;47.418;18.882;2022-12-15T10:35:29;1.90;99.90
38380;DHT22;38377;47.418;18.882;2022-12-15T10:38:00;1.90;99.90
38380;DHT22;38377;47.418;18.882;2022-12-15T10:43:39;2.00;99.90
38380;DHT22;38377;47.418;18.882;2022-12-15T10:46:10;2.00;99.90
38380;DHT22;38377;47.418;18.882;2022-12-15T10:48:42;1.90;99.90
38380;DHT22;38377;47.418;18.882;2022-12-15T10:51:18;1.90;99.90
38380;DHT22;38377;47.418;18.882;2022-12-15T10:53:53;1.90;99.90
38380;DHT22;38377;47.418;18.882;2022-12-15T10:56:24;1.90;99.90
38380;DHT22;38377;47.418;18.882;2022-12-15T10:58:56;2.00;99.90
38380;DHT22;38377;47.418;18.882;2022-12-15T11:01:31;2.00;99.90
38380;DHT22;38377;47.418;18.882;2022-12-15T11:03:57;2.00;99.90
38380;DHT22;38377;47.418;18.882;2022-12-15T11:06:34;2.10;99.90
38380;DHT22;38377;47.418;18.882;2022-12-15T11:09:23;2.10;99.90
38380;DHT22;38377;47.418;18.882;2022-12-15T11:11:51;2.00;99.90
38380;DHT22;38377;47.418;18.882;2022-12-15T11:14:44;2.00;99.90
38380;DHT22;38377;47.418;18.882;2022-12-15T11:17:18;2.10;99.90
38380;DHT22;38377;47.418;18.882;2022-12-15T11:19:54;2.20;99.90
38380;DHT22;38377;47.418;18.882;2022-12-15T11:24:52;2.20;99.90
38380;DHT22;38377;47.418;18.882;2022-12-15T11:27:32;2.20;99.90
38380;DHT22;38377;47.418;18.882;2022-12-15T11:30:17;2.30;99.90
38380;DHT22;38377;47.418;18.882;2022-12-15T11:32:50;2.30;99.90
38380;DHT22;38377;47.418;18.882;2022-12-15T11:35:38;2.30;99.90
38380;DHT22;38377;47.418;18.882;2022-12-15T11:40:53;2.30;99.90
38380;DHT22;38377;47.418;18.882;2022-12-15T11:43:38;2.30;99.90
38380;DHT22;38377;47.418;18.882;2022-12-15T11:51:05;2.50;99.90
38380;DHT22;38377;47.418;18.882;2022-12-15T12:07:49;2.30;99.90
38380;DHT22;38377;47.418;18.882;2022-12-15T12:18:24;2.20;99.90
38380;DHT22;38377;47.418;18.882;2022-12-15T12:20:57;2.20;99.90
38380;DHT22;38377;47.418;18.882;2022-12-15T12:23:41;2.20;99.90
38380;DHT22;38377;47.418;18.882;2022-12-15T12:26:25;2.20;99.90
38380;DHT22;38377;47.418;18.882;2022-12-15T12:29:13;2.20;99.90
38380;DHT22;38377;47.418;18.882;2022-12-15T12:34:28;2.20;99.90
38380;DHT22;38377;47.418;18.882;2022-12-15T12:37:03;2.20;99.90
38380;DHT22;38377;47.418;18.882;2022-12-15T12:39:32;2.20;99.90
38380;DHT22;38377;47.418;18.882;2022-12-15T12:44:39;2.20;99.90
38380;DHT22;38377;47.418;18.882;2022-12-15T12:49:49;2.30;99.90
38380;DHT22;38377;47.418;18.882;2022-12-15T12:52:37;2.30;99.90
38380;DHT22;38377;47.418;18.882;2022-12-15T12:57:46;2.40;99.90
38380;DHT22;38377;47.418;18.882;2022-12-15T13:00:24;2.40;99.90
38380;DHT22;38377;47.418;18.882;2022-12-15T13:07:54;2.40;99.90
38380;DHT22;38377;47.418;18.882;2022-12-15T13:10:22;2.40;99.90
38380;DHT22;38377;47.418;18.882;2022-12-15T13:12:50;2.40;99.90
38380;DHT22;38377;47.418;18.882;2022-12-15T13:18:20;2.50;99.90
38380;DHT22;38377;47.418;18.882;2022-12-15T13:20:48;2.40;99.90
38380;DHT22;38377;47.418;18.882;2022-12-15T13:39:04;2.30;99.90
38380;DHT22;38377;47.418;18.882;2022-12-15T13:41:30;2.30;99.90
38380;DHT22;38377;47.418;18.882;2022-12-15T13:43:57;2.30;99.90
38380;DHT22;38377;47.418;18.882;2022-12-15T13:46:31;2.20;99.90
38380;DHT22;38377;47.418;18.882;2022-12-15T13:49:06;2.20;99.90
38380;DHT22;38377;47.418;18.882;2022-12-15T13:51:37;2.20;99.90
38380;DHT22;38377;47.418;18.882;2022-12-15T13:54:14;2.20;99.90
38380;DHT22;38377;47.418;18.882;2022-12-15T13:57:03;2.20;99.90
38380;DHT22;38377;47.418;18.882;2022-12-15T14:01:58;2.20;99.90
38380;DHT22;38377;47.418;18.882;2022-12-15T14:04:25;2.10;99.90
38380;DHT22;38377;47.418;18.882;2022-12-15T14:06:56;2.10;99.90
38380;DHT22;38377;47.418;18.882;2022-12-15T14:09:37;2.10;99.90
38380;DHT22;38377;47.418;18.882;2022-12-15T14:12:10;2.00;99.90
38380;DHT22;38377;47.418;18.882;2022-12-15T14:14:42;2.00;99.90
38380;DHT22;38377;47.418;18.882;2022-12-15T14:17:14;2.00;99.90
38380;DHT22;38377;47.418;18.882;2022-12-15T14:19:44;2.00;99.90
38380;DHT22;38377;47.418;18.882;2022-12-15T14:22:23;2.00;99.90
38380;DHT22;38377;47.418;18.882;2022-12-15T14:24:51;2.00;99.90
38380;DHT22;38377;47.418;18.882;2022-12-15T14:27:23;2.00;99.90
38380;DHT22;38377;47.418;18.882;2022-12-15T14:29:49;2.00;99.90
38380;DHT22;38377;47.418;18.882;2022-12-15T14:32:15;2.00;99.90
38380;DHT22;38377;47.418;18.882;2022-12-15T14:34:42;2.00;99.90
38380;DHT22;38377;47.418;18.882;2022-12-15T14:37:18;2.00;99.90
38380;DHT22;38377;47.418;18.882;2022-12-15T14:39:46;2.00;99.90
38380;DHT22;38377;47.418;18.882;2022-12-15T14:42:31;2.00;99.90
38380;DHT22;38377;47.418;18.882;2022-12-15T14:44:57;2.00;99.90
38380;DHT22;38377;47.418;18.882;2022-12-15T14:47:24;1.90;99.90
38380;DHT22;38377;47.418;18.882;2022-12-15T14:49:52;2.00;99.90
38380;DHT22;38377;47.418;18.882;2022-12-15T14:52:37;2.00;99.90
38380;DHT22;38377;47.418;18.882;2022-12-15T14:57:56;1.90;99.90
38380;DHT22;38377;47.418;18.882;2022-12-15T15:00:30;2.00;99.90
38380;DHT22;38377;47.418;18.882;2022-12-15T15:03:38;2.00;99.90
38380;DHT22;38377;47.418;18.882;2022-12-15T15:08:55;2.00;99.90
38380;DHT22;38377;47.418;18.882;2022-12-15T15:11:34;1.90;99.90
38380;DHT22;38377;47.418;18.882;2022-12-15T15:14:27;1.90;99.90
38380;DHT22;38377;47.418;18.882;2022-12-15T15:17:01;2.00;99.90
38380;DHT22;38377;47.418;18.882;2022-12-15T15:19:28;2.00;99.90
38380;DHT22;38377;47.418;18.882;2022-12-15T15:21:54;2.00;99.90
38380;DHT22;38377;47.418;18.882;2022-12-15T15:24:24;2.00;99.90
38380;DHT22;38377;47.418;18.882;2022-12-15T15:26:53;2.00;99.90
38380;DHT22;38377;47.418;18.882;2022-12-15T15:29:39;2.00;99.90
38380;DHT22;38377;47.418;18.882;2022-12-15T15:32:15;2.00;99.90
38380;DHT22;38377;47.418;18.882;2022-12-15T15:34:41;2.00;99.90
38380;DHT22;38377;47.418;18.882;2022-12-15T15:37:20;2.00;99.90
38380;DHT22;38377;47.418;18.882;2022-12-15T15:39:51;1.90;99.90
38380;DHT22;38377;47.418;18.882;2022-12-15T15:42:17;2.00;99.90
38380;DHT22;38377;47.418;18.882;2022-12-15T15:44:43;1.90;99.90
38380;DHT22;38377;47.418;18.882;2022-12-15T15:47:24;2.00;99.90
38380;DHT22;38377;47.418;18.882;2022-12-15T15:49:51;2.00;99.90
38380;DHT22;38377;47.418;18.882;2022-12-15T15:52:17;2.00;99.90
38380;DHT22;38377;47.418;18.882;2022-12-15T15:54:43;2.00;99.90
38380;DHT22;38377;47.418;18.882;2022-12-15T15:57:17;2.00;99.90
38380;DHT22;38377;47.418;18.882;2022-12-15T15:59:43;2.00;99.90
38380;DHT22;38377;47.418;18.882;2022-12-15T16:02:11;2.10;99.90
38380;DHT22;38377;47.418;18.882;2022-12-15T16:04:38;2.00;99.90
38380;DHT22;38377;47.418;18.882;2022-12-15T16:07:24;2.00;99.90
38380;DHT22;38377;47.418;18.882;2022-12-15T16:09:52;2.00;99.90
38380;DHT22;38377;47.418;18.882;2022-12-15T16:12:35;2.00;99.90
38380;DHT22;38377;47.418;18.882;2022-12-15T16:15:12;2.00;99.90
38380;DHT22;38377;47.418;18.882;2022-12-15T16:17:38;2.00;99.90
38380;DHT22;38377;47.418;18.882;2022-12-15T16:20:04;2.00;99.90
38380;DHT22;38377;47.418;18.882;2022-12-15T16:22:30;2.00;99.90
38380;DHT22;38377;47.418;18.882;2022-12-15T16:24:58;2.00;99.90
38380;DHT22;38377;47.418;18.882;2022-12-15T16:27:23;2.00;99.90
38380;DHT22;38377;47.418;18.882;2022-12-15T16:29:49;2.00;99.90
38380;DHT22;38377;47.418;18.882;2022-12-15T16:32:15;2.10;99.90
38380;DHT22;38377;47.418;18.882;2022-12-15T16:34:41;2.00;99.90
38380;DHT22;38377;47.418;18.882;2022-12-15T16:37:23;2.00;99.90
38380;DHT22;38377;47.418;18.882;2022-12-15T16:39:49;2.10;99.90
38380;DHT22;38377;47.418;18.882;2022-12-15T16:42:15;2.00;99.90
38380;DHT22;38377;47.418;18.882;2022-12-15T16:44:40;2.10;99.90
38380;DHT22;38377;47.418;18.882;2022-12-15T16:47:06;2.10;99.90
38380;DHT22;38377;47.418;18.882;2022-12-15T16:49:32;2.10;99.90
38380;DHT22;38377;47.418;18.882;2022-12-15T16:51:58;2.10;99.90
38380;DHT22;38377;47.418;18.882;2022-12-15T16:54:25;2.10;99.90
38380;DHT22;38377;47.418;18.882;2022-12-15T16:56:55;2.00;99.90
38380;DHT22;38377;47.418;18.882;2022-12-15T16:59:23;2.10;99.90
38380;DHT22;38377;47.418;18.882;2022-12-15T17:01:52;2.00;99.90
38380;DHT22;38377;47.418;18.882;2022-12-15T17:04:18;2.10;99.90
38380;DHT22;38377;47.418;18.882;2022-12-15T17:06:45;2.10;99.90
38380;DHT22;38377;47.418;18.882;2022-12-15T17:09:19;2.10;99.90
38380;DHT22;38377;47.418;18.882;2022-12-15T17:11:46;2.10;99.90
38380;DHT22;38377;47.418;18.882;2022-12-15T17:14:12;2.10;99.90
38380;DHT22;38377;47.418;18.882;2022-12-15T17:16:37;2.10;99.90
38380;DHT22;38377;47.418;18.882;2022-12-15T17:19:03;2.10;99.90
38380;DHT22;38377;47.418;18.882;2022-12-15T17:21:35;2.10;99.90
38380;DHT22;38377;47.418;18.882;2022-12-15T17:24:05;2.10;99.90
38380;DHT22;38377;47.418;18.882;2022-12-15T17:26:33;2.10;99.90
38380;DHT22;38377;47.418;18.882;2022-12-15T17:29:26;2.10;99.90
38380;DHT22;38377;47.418;18.882;2022-12-15T17:31:52;2.10;99.90
38380;DHT22;38377;47.418;18.882;2022-12-15T17:34:29;2.10;99.90
38380;DHT22;38377;47.418;18.882;2022-12-15T17:37:02;2.10;99.90
38380;DHT22;38377;47.418;18.882;2022-12-15T17:39:29;2.10;99.90
38380;DHT22;38377;47.418;18.882;2022-12-15T17:41:55;2.10;99.90
38380;DHT22;38377;47.418;18.882;2022-12-15T17:44:23;2.00;99.90
38380;DHT22;38377;47.418;18.882;2022-12-15T17:46:49;2.00;99.90
38380;DHT22;38377;47.418;18.882;2022-12-15T17:49:17;2.10;99.90
38380;DHT22;38377;47.418;18.882;2022-12-15T17:51:43;2.10;99.90
38380;DHT22;38377;47.418;18.882;2022-12-15T17:54:17;2.10;99.90
38380;DHT22;38377;47.418;18.882;2022-12-15T17:56:45;2.10;99.90
38380;DHT22;38377;47.418;18.882;2022-12-15T17:59:13;2.10;99.90
38380;DHT22;38377;47.418;18.882;2022-12-15T18:01:40;2.10;99.90
38380;DHT22;38377;47.418;18.882;2022-12-15T18:04:09;2.10;99.90
38380;DHT22;38377;47.418;18.882;2022-12-15T18:06:39;2.10;99.90